Data for 09/10/2014

Time Sea-Level Adjusted Pressure Absolute Pressure Temperature Relative Humidity Dew Point   
(mb) (inHg) (mb) (inHg) (C) (F) (%) (C) (F)
00:05 1021 30.15 850 25.1 6.2 43.1 79 2.7 36.9
00:10 1021 30.15 850 25.1 6.1 43 79 2.7 36.9
00:15 1020 30.12 850 25.1 6 42.9 79 2.6 36.7
00:20 1020 30.12 850 25.1 6 42.7 79 2.5 36.6
00:25 1021 30.15 850 25.1 5.8 42.5 79 2.5 36.5
00:30 1020 30.12 850 25.1 5.8 42.4 79 2.4 36.3
00:35 1020 30.12 850 25.1 5.8 42.4 78 2.3 36.2
00:40 1020 30.12 850 25.1 5.8 42.4 79 2.4 36.2
00:45 1020 30.12 850 25.1 5.7 42.3 79 2.4 36.4
00:50 1020 30.12 850 25.1 5.6 42.1 80 2.4 36.4
00:55 1020 30.12 850 25.1 5.6 42 80 2.4 36.3
01:00 1020 30.12 850 25.1 5.6 42 80 2.3 36.2
01:05 1020 30.12 850 25.1 5.6 42 80 2.3 36.2
01:10 1020 30.12 850 25.1 5.6 42 80 2.3 36.2
01:15 1020 30.12 850 25.1 5.5 42 79 2.2 36
01:20 1021 30.15 850 25.1 5.6 42 79 2.2 35.9
01:25 1020 30.12 850 25.1 5.6 42.1 78 2.1 35.8
01:30 1020 30.12 850 25.1 5.6 42 78 2.1 35.8
01:35 1020 30.12 850 25.1 5.6 42 78 2.1 35.7
01:40 1020 30.12 850 25.1 5.6 42 79 2.1 35.9
01:45 1020 30.12 850 25.1 5.5 42 78 2.1 35.8
01:50 1020 30.12 850 25.1 5.5 41.9 79 2.1 35.8
01:55 1020 30.12 850 25.1 5.5 41.8 78 2 35.6
02:00 1020 30.12 850 25.1 5.5 41.9 78 2 35.6
02:05 1020 30.12 850 25.1 5.5 41.9 78 2 35.6
02:10 1020 30.12 850 25.1 5.6 42 77 1.9 35.5
02:15 1020 30.12 850 25.1 5.6 42 77 1.9 35.4
02:20 1020 30.12 850 25.1 5.6 42.1 77 1.9 35.3
02:25 1020 30.12 850 25.1 5.6 42.1 77 1.9 35.4
02:30 1020 30.12 850 25.1 5.6 42.1 76 1.7 35.1
02:35 1020 30.12 850 25.1 5.6 42.1 76 1.8 35.2
02:40 1020 30.12 850 25.1 5.6 42 77 1.8 35.2
02:45 1020 30.12 850 25.1 5.6 42 77 1.8 35.2
02:50 1020 30.12 850 25.1 5.5 42 77 1.8 35.2
02:55 1020 30.12 849 25.07 5.5 41.9 77 1.8 35.3
03:00 1020 30.12 849 25.07 5.5 41.8 77 1.8 35.2
03:05 1020 30.12 849 25.07 5.4 41.8 76 1.6 34.9
03:10 1020 30.12 849 25.07 5.4 41.7 77 1.7 35.1
03:15 1020 30.12 850 25.1 5.4 41.7 78 1.8 35.2
03:20 1020 30.12 850 25.1 5.3 41.6 78 1.8 35.3
03:25 1021 30.15 850 25.1 5.3 41.6 78 1.7 35.1
03:30 1021 30.15 850 25.1 5.3 41.6 78 1.8 35.3
03:35 1020 30.12 849 25.07 5.3 41.5 79 1.9 35.4
03:40 1020 30.12 850 25.1 5.3 41.5 78 1.8 35.3
03:45 1020 30.12 850 25.1 5.2 41.3 79 1.8 35.2
03:50 1020 30.12 850 25.1 5.2 41.3 78 1.7 35.1
03:55 1021 30.15 850 25.1 5.2 41.3 79 1.9 35.4
04:00 1021 30.15 850 25.1 5 41 81 2 35.6
04:05 1021 30.15 850 25.1 4.8 40.7 81 1.9 35.4
04:10 1021 30.15 850 25.1 4.8 40.6 82 1.9 35.5
04:15 1021 30.15 850 25.1 4.8 40.6 82 1.9 35.5
04:20 1021 30.15 850 25.1 4.7 40.5 82 2 35.5
04:25 1021 30.15 850 25.1 4.8 40.6 82 1.9 35.5
04:30 1021 30.15 850 25.1 4.8 40.7 83 2.2 36
04:35 1021 30.15 850 25.1 4.9 40.8 82 2.1 35.9
04:40 1021 30.15 850 25.1 5 41.1 81 2.1 35.8
04:45 1021 30.15 850 25.1 4.9 40.8 82 2.1 35.7
04:50 1021 30.15 850 25.1 4.8 40.6 83 2.1 35.8
04:55 1021 30.15 850 25.1 4.8 40.7 83 2.2 35.9
05:00 1021 30.15 850 25.1 4.8 40.7 80 1.7 35
05:05 1020 30.12 850 25.1 4.9 40.8 81 2 35.6
05:10 1020 30.12 850 25.1 4.9 40.9 80 1.7 35.1
05:15 1020 30.12 850 25.1 5 41 81 1.9 35.5
05:20 1020 30.12 850 25.1 5 41 79 1.7 35.1
05:25 1020 30.12 850 25.1 5 41 79 1.7 35.1
05:30 1021 30.15 850 25.1 5 41 79 1.7 35.1
05:35 1020 30.12 850 25.1 5 41 79 1.7 35.1
05:40 1021 30.15 850 25.1 5 41 80 1.9 35.3
05:45 1021 30.15 850 25.1 5.1 41.2 80 1.9 35.5
05:50 1021 30.15 850 25.1 5.1 41.2 80 2 35.5
05:55 1021 30.15 850 25.1 5.3 41.6 79 2 35.5
06:00 1021 30.15 850 25.1 5.2 41.4 80 2 35.6
06:05 1021 30.15 850 25.1 5.2 41.3 80 2 35.5
06:10 1021 30.15 850 25.1 5.2 41.3 80 2 35.5
06:15 1021 30.15 850 25.1 5.1 41.3 79 1.9 35.4
06:20 1021 30.15 850 25.1 5.3 41.5 79 2 35.6
06:25 1021 30.15 850 25.1 5.3 41.6 80 2.1 35.8
06:30 1021 30.15 850 25.1 5.3 41.5 80 2.1 35.9
06:35 1021 30.15 850 25.1 5.2 41.4 80 2.1 35.8
06:40 1021 30.15 850 25.1 5.3 41.5 79 1.9 35.5
06:45 1021 30.15 850 25.1 5.4 41.8 78 2 35.6
06:50 1021 30.15 850 25.1 5.4 41.6 79 1.9 35.5
06:55 1021 30.15 850 25.1 5.3 41.6 78 1.9 35.4
07:00 1021 30.15 850 25.1 5.3 41.6 79 2 35.6
07:05 1021 30.15 850 25.1 5.3 41.5 79 1.9 35.4
07:10 1021 30.15 850 25.1 5.3 41.5 79 1.9 35.4
07:15 1021 30.15 850 25.1 5.6 42 76 1.7 35.1
07:20 1021 30.15 850 25.1 6.1 42.9 74 1.9 35.4
07:25 1021 30.15 850 25.1 6.3 43.3 73 1.8 35.2
07:30 1021 30.15 850 25.1 6.4 43.4 73 1.8 35.3
07:35 1021 30.15 850 25.1 6.4 43.5 73 1.9 35.4
07:40 1021 30.15 850 25.1 6.4 43.4 73 1.9 35.5
07:45 1021 30.15 850 25.1 6.3 43.3 74 2 35.5
07:50 1021 30.15 850 25.1 6.2 43.1 74 1.9 35.4
07:55 1021 30.15 850 25.1 6.2 43.2 74 2 35.5
08:00 1021 30.15 850 25.1 5.8 42.5 76 1.9 35.5
08:05 1021 30.15 850 25.1 5.7 42.3 75 1.7 35.1
08:10 1021 30.15 850 25.1 5.7 42.3 77 2 35.7
08:15 1020 30.12 850 25.1 5.6 42.2 78 2.1 35.8
08:20 1020 30.12 850 25.1 5.8 42.5 76 1.9 35.4
08:25 1020 30.12 850 25.1 6.6 43.9 72 2 35.7
08:30 1020 30.12 849 25.07 7 44.6 72 2.2 36
08:35 1020 30.12 849 25.07 7.5 45.5 71 2.5 36.6
08:40 1020 30.12 849 25.07 7.4 45.4 69 2.2 36
08:45 1020 30.12 849 25.07 7.8 46 70 2.7 36.9
08:50 1020 30.12 849 25.07 8 46.5 68 2.5 36.4
08:55 1020 30.12 849 25.07 8.3 46.9 67 2.5 36.5
09:00 1020 30.12 849 25.07 8.9 47.9 65 2.6 36.7
09:05 1020 30.12 849 25.07 8.9 48 63 2.2 35.9
09:10 1020 30.12 849 25.07 9.8 49.6 64 3.2 37.8
09:15 1020 30.12 849 25.07 9.6 49.2 61 2.6 36.6
09:20 1020 30.12 850 25.1 10 50 61 2.9 37.3
09:25 1020 30.12 850 25.1 10 49.9 62 3.1 37.5
09:30 1020 30.12 850 25.1 10.4 50.7 61 3.2 37.7
09:35 1020 30.12 850 25.1 10.5 50.9 61 3.2 37.8
09:40 1021 30.15 850 25.1 10.6 51.2 59 2.9 37.3
09:45 1021 30.15 850 25.1 10.9 51.7 59 3.3 37.9
09:50 1021 30.15 850 25.1 11.1 52 56 2.8 37
09:55 1021 30.15 850 25.1 11.1 51.9 58 3.1 37.6
10:00 1021 30.15 850 25.1 10.5 50.9 60 3.2 37.7
10:05 1021 30.15 850 25.1 9.8 49.7 62 2.9 37.2
10:10 1021 30.15 850 25.1 10 49.9 60 2.6 36.7
10:15 1021 30.15 850 25.1 10 50 61 2.9 37.2
10:20 1021 30.15 850 25.1 10.3 50.6 59 2.6 36.7
10:25 1021 30.15 850 25.1 10.6 51 59 3 37.4
10:30 1021 30.15 850 25.1 10.6 51.1 59 2.9 37.3
10:35 1021 30.15 850 25.1 10.6 51 58 2.8 37.1
10:40 1021 30.15 850 25.1 10.4 50.6 60 3 37.4
10:45 1021 30.15 850 25.1 9.9 49.8 62 3 37.4
10:50 1021 30.15 850 25.1 9.4 48.9 64 3 37.4
10:55 1021 30.15 850 25.1 10.1 50.1 59 2.6 36.7
11:00 1021 30.15 850 25.1 10.6 51.1 60 3.1 37.6
11:05 1021 30.15 850 25.1 10.9 51.6 60 3.4 38.1
11:10 1021 30.15 850 25.1 10.7 51.2 59 3 37.5
11:15 1021 30.15 850 25.1 11 51.8 58 3.2 37.7
11:20 1021 30.15 850 25.1 10.7 51.2 61 3.5 38.3
11:25 1021 30.15 850 25.1 10.3 50.6 59 2.8 37
11:30 1021 30.15 850 25.1 10.8 51.4 58 2.9 37.2
11:35 1020 30.12 850 25.1 11.2 52.1 55 2.7 36.8
11:40 1020 30.12 850 25.1 11.3 52.3 55 2.7 36.9
11:45 1021 30.15 850 25.1 11.3 52.4 56 2.9 37.2
11:50 1021 30.15 850 25.1 10.9 51.6 58 2.9 37.2
11:55 1021 30.15 850 25.1 10.9 51.6 56 2.6 36.7
12:00 1021 30.15 850 25.1 11 51.7 56 2.7 36.8
12:05 1021 30.15 850 25.1 10.6 51.1 59 3 37.3
12:10 1020 30.12 850 25.1 10.9 51.6 58 3 37.4
12:15 1021 30.15 850 25.1 10.2 50.4 61 3.1 37.6
12:20 1020 30.12 850 25.1 10 50 60 2.6 36.6
12:25 1020 30.12 850 25.1 10.7 51.2 55 2.1 35.8
12:30 1020 30.12 850 25.1 10.9 51.5 56 2.5 36.5
12:35 1020 30.12 850 25.1 11.3 52.4 54 2.5 36.5
12:40 1020 30.12 850 25.1 11.8 53.3 52 2.4 36.4
12:45 1020 30.12 849 25.07 12 53.5 51 2.2 36
12:50 1020 30.12 849 25.07 11.9 53.3 54 2.9 37.3
12:55 1020 30.12 849 25.07 11.7 53 53 2.5 36.5
13:00 1020 30.12 849 25.07 12.5 54.4 48 1.7 35.1
13:05 1020 30.12 849 25.07 12 53.6 50 2.1 35.7
13:10 1020 30.12 849 25.07 12.3 54.2 48 1.7 35.1
13:15 1020 30.12 849 25.07 12.3 54.1 49 1.8 35.3
13:20 1020 30.12 849 25.07 11.8 53.2 50 1.8 35.2
13:25 1020 30.12 849 25.07 12.2 53.9 49 2 35.5
13:30 1020 30.12 849 25.07 12.2 53.9 51 2.3 36.1
13:35 1020 30.12 849 25.07 11.3 52.4 52 1.8 35.2
13:40 1020 30.12 849 25.07 11.8 53.2 50 1.9 35.4
13:45 1020 30.12 849 25.07 12 53.5 49 1.7 35.1
13:50 1020 30.12 849 25.07 12.2 54 49 1.9 35.4
13:55 1020 30.12 849 25.07 11.9 53.3 50 1.9 35.4
14:00 1020 30.12 849 25.07 11.7 53.1 51 2 35.6
14:05 1020 30.12 849 25.07 11.9 53.4 53 2.5 36.6
14:10 1020 30.12 849 25.07 11.5 52.7 51 1.7 35.1
14:15 1020 30.12 849 25.07 11.5 52.6 52 2 35.6
14:20 1020 30.12 849 25.07 11.4 52.6 53 2.2 35.9
14:25 1020 30.12 849 25.07 11.4 52.6 53 2.3 36.1
14:30 1020 30.12 849 25.07 11.3 52.3 54 2.3 36.2
14:35 1020 30.12 849 25.07 11.6 52.9 52 2.2 35.9
14:40 1020 30.12 849 25.07 11.6 53 51 1.9 35.4
14:45 1020 30.12 849 25.07 11 51.8 53 1.9 35.5
14:50 1020 30.12 849 25.07 11.4 52.4 53 2.2 35.9
14:55 1020 30.12 849 25.07 11.7 53.1 51 2.1 35.7
15:00 1020 30.12 850 25.1 11.6 52.9 52 2 35.6
15:05 1020 30.12 850 25.1 11 51.9 54 2.2 35.9
15:10 1021 30.15 850 25.1 10.6 51.1 56 2.4 36.2
15:15 1020 30.12 850 25.1 10.7 51.2 57 2.6 36.7
15:20 1020 30.12 850 25.1 10.8 51.4 58 2.7 36.9
15:25 1021 30.15 850 25.1 10.8 51.5 57 2.7 36.9
15:30 1021 30.15 850 25.1 10.9 51.7 56 2.6 36.7
15:35 1021 30.15 850 25.1 10.8 51.4 57 2.5 36.5
15:40 1021 30.15 850 25.1 10.5 50.9 56 2.1 35.9
15:45 1021 30.15 850 25.1 10.2 50.3 57 1.9 35.5
15:50 1021 30.15 850 25.1 10.1 50.1 57 2 35.5
15:55 1021 30.15 851 25.13 9.9 49.8 63 3.1 37.6
16:00 1021 30.15 850 25.1 8 46.5 76 4.1 39.4
16:05 1021 30.15 851 25.13 7.2 45 79 3.8 38.9
16:10 1021 30.15 851 25.13 6.9 44.4 83 4.1 39.5
16:15 1021 30.15 851 25.13 7.1 44.8 81 4.1 39.4
16:20 1021 30.15 851 25.13 7 44.6 83 4.3 39.8
16:25 1022 30.18 851 25.13 7.1 44.7 81 4.1 39.3
16:30 1022 30.18 851 25.13 7.2 44.9 80 4 39.1
16:35 1022 30.18 851 25.13 7.2 44.9 82 4.3 39.7
16:40 1022 30.18 851 25.13 7.6 45.6 80 4.4 39.9
16:45 1022 30.18 851 25.13 7.7 45.8 81 4.5 40.2
16:50 1022 30.18 851 25.13 7.5 45.4 82 4.6 40.2
16:55 1022 30.18 851 25.13 7.4 45.2 82 4.5 40.1
17:00 1022 30.18 851 25.13 7.2 44.9 84 4.6 40.3
17:05 1022 30.18 852 25.16 7 44.7 83 4.3 39.8
17:10 1022 30.18 852 25.16 6.9 44.4 84 4.4 39.9
17:15 1022 30.18 852 25.16 7 44.6 85 4.6 40.3
17:20 1023 30.21 852 25.16 6.9 44.3 80 3.6 38.5
17:25 1023 30.21 852 25.16 5.9 42.6 86 3.7 38.6
17:30 1023 30.21 852 25.16 5.3 41.6 89 3.6 38.5
17:35 1023 30.21 853 25.19 5.2 41.3 88 3.4 38.1
17:40 1023 30.21 853 25.19 5 41.1 88 3.2 37.8
17:45 1023 30.21 853 25.19 4.8 40.7 88 3 37.5
17:50 1024 30.24 853 25.19 4.7 40.4 88 2.9 37.2
17:55 1024 30.24 853 25.19 4.5 40.1 88 2.6 36.7
18:00 1024 30.24 853 25.19 4.6 40.3 88 2.8 37
18:05 1024 30.24 853 25.19 4.6 40.2 88 2.8 37
18:10 1024 30.24 853 25.19 4.6 40.4 88 2.9 37.2
18:15 1024 30.24 853 25.19 4.6 40.3 89 2.9 37.2
18:20 1024 30.24 853 25.19 4.4 40 86 2.4 36.2
18:25 1024 30.24 853 25.19 4.5 40.2 88 2.7 36.8
18:30 1024 30.24 853 25.19 4.7 40.5 87 2.8 37
18:35 1024 30.24 853 25.19 4.7 40.5 83 2.1 35.7
18:40 1024 30.24 853 25.19 4.8 40.7 84 2.4 36.3
18:45 1024 30.24 853 25.19 4.5 40.1 88 2.8 37
18:50 1024 30.24 853 25.19 4.2 39.5 89 2.5 36.5
18:55 1024 30.24 854 25.22 4.2 39.5 89 2.5 36.5
19:00 1024 30.24 854 25.22 4.1 39.5 90 2.7 36.8
19:05 1025 30.27 854 25.22 4.1 39.4 89 2.4 36.4
19:10 1025 30.27 854 25.22 3.9 39.1 87 2 35.6
19:15 1025 30.27 854 25.22 3.7 38.7 88 1.8 35.3
19:20 1025 30.27 854 25.22 3.6 38.4 88 1.8 35.2
19:25 1025 30.27 854 25.22 3.4 38.2 89 1.8 35.3
19:30 1025 30.27 854 25.22 3.3 37.9 88 1.4 34.5
19:35 1025 30.27 854 25.22 3.1 37.5 89 1.4 34.5
19:40 1025 30.27 854 25.22 3 37.3 90 1.4 34.6
19:45 1025 30.27 854 25.22 3 37.3 90 1.5 34.7
19:50 1025 30.27 855 25.25 2.9 37.2 90 1.4 34.5
19:55 1025 30.27 855 25.25 2.8 37 90 1.3 34.3
20:00 1025 30.27 855 25.25 2.7 36.8 90 1.2 34.1
20:05 1025 30.27 855 25.25 2.5 36.5 89 0.9 33.6
20:10 1025 30.27 855 25.25 2.4 36.3 90 0.9 33.6
20:15 1026 30.3 855 25.25 2.3 36.1 90 0.8 33.5
20:20 1026 30.3 855 25.25 2.1 35.9 89 0.5 33
20:25 1026 30.3 855 25.25 2 35.7 91 0.6 33.2
20:30 1026 30.3 855 25.25 2.1 35.7 89 0.5 32.8
20:35 1026 30.3 855 25.25 2 35.6 87 0.2 32.3
20:40 1026 30.3 855 25.25 2 35.5 88 0.1 32.2
20:45 1026 30.3 855 25.25 2 35.5 88 0.2 32.4
20:50 1026 30.3 855 25.25 2.1 35.7 86 0 32
20:55 1026 30.3 855 25.25 2.2 35.9 87 0.2 32.3
21:00 1026 30.3 855 25.25 2.2 35.9 86 0 32.1
21:05 1026 30.3 855 25.25 2 35.6 87 0 32.1
21:10 1026 30.3 855 25.25 1.9 35.4 87 -0.1 31.8
21:15 1026 30.3 855 25.25 1.8 35.3 86 -0.3 31.5
21:20 1026 30.3 855 25.25 1.9 35.4 86 -0.2 31.7
21:25 1026 30.3 855 25.25 1.9 35.3 86 -0.2 31.6
21:30 1026 30.3 855 25.25 1.9 35.3 87 -0.1 31.7
21:35 1026 30.3 855 25.25 1.9 35.5 86 -0.1 31.7
21:40 1026 30.3 855 25.25 2 35.6 87 0 32
21:45 1026 30.3 855 25.25 2 35.7 87 0.2 32.3
21:50 1026 30.3 855 25.25 2.1 35.7 86 -0.1 31.9
21:55 1026 30.3 855 25.25 2 35.6 85 -0.3 31.5
22:00 1026 30.3 855 25.25 2 35.6 86 -0.1 31.8
22:05 1026 30.3 856 25.28 2 35.6 85 -0.2 31.6
22:10 1026 30.3 856 25.28 1.9 35.5 84 -0.5 31
22:15 1026 30.3 855 25.25 1.9 35.5 82 -0.7 30.7
22:20 1026 30.3 855 25.25 1.8 35.3 84 -0.6 31
22:25 1026 30.3 855 25.25 1.7 35.1 85 -0.5 31.1
22:30 1026 30.3 855 25.25 1.6 34.9 85 -0.6 31
22:35 1026 30.3 855 25.25 1.5 34.7 86 -0.6 31
22:40 1026 30.3 855 25.25 1.4 34.5 86 -0.7 30.7
22:45 1026 30.3 856 25.28 1.4 34.4 86 -0.7 30.8
22:50 1026 30.3 855 25.25 1.3 34.3 87 -0.6 30.9
22:55 1026 30.3 855 25.25 1.4 34.4 85 -0.9 30.3
23:00 1026 30.3 855 25.25 1.5 34.7 83 -1 30.1
23:05 1026 30.3 855 25.25 1.5 34.8 83 -1 30.1
23:10 1026 30.3 855 25.25 1.6 34.9 82 -1.1 30
23:15 1026 30.3 855 25.25 1.6 34.9 82 -1.2 29.8
23:20 1026 30.3 855 25.25 1.6 34.8 83 -1.1 30.1
23:25 1026 30.3 855 25.25 1.6 34.9 80 -1.4 29.4
23:30 1026 30.3 855 25.25 1.6 34.8 82 -1.2 29.8
23:35 1026 30.3 855 25.25 1.5 34.7 83 -1.1 30
23:40 1026 30.3 855 25.25 1.4 34.5 83 -1.2 29.9
23:45 1026 30.3 855 25.25 1.4 34.4 83 -1.2 29.9
23:50 1026 30.3 855 25.25 1.3 34.4 84 -1.2 29.9
23:55 1026 30.3 855 25.25 1.3 34.3 83 -1.2 29.8
24:00 1026 30.3 855 25.25 1.3 34.3 82 -1.4 29.5